createdAt,value
2022-12-15T00:03:50.181Z,4.9
2022-12-15T00:09:23.170Z,5.1
2022-12-15T00:14:37.168Z,4.5
2022-12-15T00:20:18.005Z,4.3
2022-12-15T00:26:07.743Z,4.8
2022-12-15T00:31:38.769Z,5.7
2022-12-15T00:36:58.922Z,4.9
2022-12-15T00:42:31.407Z,4.5
2022-12-15T00:47:49.436Z,4.8
2022-12-15T00:53:28.611Z,5
2022-12-15T00:59:09.093Z,5.2
2022-12-15T01:04:30.881Z,5.1
2022-12-15T01:09:54.032Z,5.4
2022-12-15T01:15:35.072Z,5.3
2022-12-15T01:21:01.288Z,5.2
2022-12-15T01:26:53.200Z,5.7
2022-12-15T01:32:05.634Z,5.5
2022-12-15T01:37:37.001Z,5
2022-12-15T01:43:27.627Z,5
2022-12-15T01:48:37.180Z,5.3
2022-12-15T01:54:26.151Z,4.8
2022-12-15T01:59:50.299Z,4.7
2022-12-15T02:05:34.102Z,4.5
2022-12-15T02:11:04.158Z,4.9
2022-12-15T02:16:27.075Z,5.3
2022-12-15T02:21:48.440Z,5.4
2022-12-15T02:27:22.263Z,5.7
2022-12-15T02:32:55.349Z,5.8
2022-12-15T02:38:44.839Z,5.6
2022-12-15T02:44:19.497Z,5.9
2022-12-15T02:49:30.971Z,5.2
2022-12-15T02:55:18.903Z,4.8
2022-12-15T03:00:50.339Z,5
2022-12-15T03:06:19.274Z,4.9
2022-12-15T03:11:54.375Z,5.5
2022-12-15T03:17:12.622Z,4.9
2022-12-15T03:23:02.875Z,4.7
2022-12-15T03:28:26.315Z,4.4
2022-12-15T03:34:00.786Z,4.4
2022-12-15T03:39:36.873Z,4.2
2022-12-15T03:44:55.327Z,4.4
2022-12-15T03:50:27.445Z,4.7
2022-12-15T03:56:18.687Z,4.5
2022-12-15T04:01:47.187Z,4.5
2022-12-15T04:12:49.290Z,4.1
2022-12-15T04:18:07.044Z,3.8
2022-12-15T04:23:56.459Z,3.7
2022-12-15T04:29:28.397Z,3.4
2022-12-15T04:34:44.890Z,3.5
2022-12-15T04:40:32.637Z,3.6
2022-12-15T04:46:02.795Z,3.5
2022-12-15T04:51:31.954Z,3.1
2022-12-15T04:57:09.928Z,3.1
2022-12-15T05:02:29.060Z,3.2
2022-12-15T05:08:22.545Z,2.9
2022-12-15T05:13:47.909Z,2.7
2022-12-15T05:19:25.498Z,2.9
2022-12-15T05:24:44.421Z,2.8
2022-12-15T05:30:26.046Z,2.7
2022-12-15T05:36:00.396Z,2.8
2022-12-15T05:41:31.059Z,2.6
2022-12-15T05:47:07.360Z,2.5
2022-12-15T05:52:29.233Z,2.6
2022-12-15T05:58:13.083Z,2.5
2022-12-15T06:08:54.892Z,2.5
2022-12-15T06:14:33.150Z,2.6
2022-12-15T06:19:56.926Z,2.7
2022-12-15T06:25:30.770Z,2.8
2022-12-15T06:31:18.968Z,2.6
2022-12-15T06:36:35.910Z,2.5
2022-12-15T06:42:27.983Z,2.2
2022-12-15T06:47:47.478Z,2.2
2022-12-15T06:53:16.867Z,2.2
2022-12-15T06:58:57.650Z,2.2
2022-12-15T07:04:24.644Z,2.3
2022-12-15T07:10:12.257Z,2.2
2022-12-15T07:15:45.608Z,2.3
2022-12-15T07:21:21.292Z,2.3
2022-12-15T07:26:37.837Z,2.2
2022-12-15T07:32:11.288Z,2.3
2022-12-15T07:37:59.146Z,2.5
2022-12-15T07:43:25.569Z,2.4
2022-12-15T07:48:44.700Z,2.3
2022-12-15T07:54:18.493Z,2.2
2022-12-15T07:59:49.091Z,2.3
2022-12-15T08:05:22.578Z,2.2
2022-12-15T08:10:50.162Z,2.2
2022-12-15T08:16:26.446Z,2.2
2022-12-15T08:21:54.894Z,2.2
2022-12-15T08:27:36.892Z,2.2
2022-12-15T08:32:55.926Z,2.3
2022-12-15T08:38:52.350Z,2.4
2022-12-15T08:44:07.407Z,2.4
2022-12-15T08:49:42.201Z,2.4
2022-12-15T08:55:19.388Z,2.5
2022-12-15T09:00:50.739Z,2.5
2022-12-15T09:06:14.293Z,2.5
2022-12-15T09:11:56.069Z,2.6
2022-12-15T09:17:32.149Z,3
2022-12-15T09:23:02.909Z,2.9
2022-12-15T09:28:35.426Z,2.9
2022-12-15T09:33:58.098Z,3
2022-12-15T09:39:26.291Z,2.8
2022-12-15T09:45:00.724Z,2.8
2022-12-15T09:50:48.052Z,2.8
2022-12-15T09:56:27.193Z,2.8
2022-12-15T10:01:52.679Z,2.8
2022-12-15T10:07:11.103Z,2.7
2022-12-15T10:12:55.465Z,2.6
2022-12-15T10:18:27.321Z,2.7
2022-12-15T10:23:51.436Z,2.7
2022-12-15T10:29:16.700Z,2.8
2022-12-15T10:35:06.939Z,2.8
2022-12-15T10:40:39.854Z,2.7
2022-12-15T10:46:18.043Z,2.7
2022-12-15T10:51:45.069Z,2.6
2022-12-15T10:57:03.751Z,2.6
2022-12-15T11:02:43.830Z,2.5
2022-12-15T11:08:30.634Z,2.5
2022-12-15T11:13:54.338Z,2.6
2022-12-15T11:19:11.157Z,2.6
2022-12-15T11:24:42.875Z,2.7
2022-12-15T11:30:26.197Z,2.8
2022-12-15T11:36:08.221Z,2.8
2022-12-15T11:41:41.678Z,2.8
2022-12-15T11:46:55.776Z,2.7
2022-12-15T11:52:40.123Z,2.8
2022-12-15T11:58:16.369Z,2.8
2022-12-15T12:03:50.618Z,2.8
2022-12-15T12:09:04.301Z,2.8
2022-12-15T12:14:50.517Z,2.8
2022-12-15T12:20:19.005Z,2.8
2022-12-15T12:25:52.251Z,2.9
2022-12-15T12:31:28.811Z,2.9
2022-12-15T12:36:52.971Z,2.9
2022-12-15T12:42:26.529Z,2.8
2022-12-15T12:47:53.474Z,2.8
2022-12-15T12:53:33.464Z,2.8
2022-12-15T12:59:04.288Z,2.8
2022-12-15T13:04:35.137Z,2.8
2022-12-15T13:10:18.689Z,2.7
2022-12-15T13:15:54.477Z,2.7
2022-12-15T13:21:28.540Z,2.8
2022-12-15T13:26:44.083Z,2.7
2022-12-15T13:32:10.680Z,2.7
2022-12-15T13:38:01.637Z,2.8
2022-12-15T13:43:30.566Z,2.7
2022-12-15T13:48:49.255Z,2.7
2022-12-15T13:54:36.180Z,2.7
2022-12-15T14:00:08.793Z,2.7
2022-12-15T14:05:30.301Z,2.6
2022-12-15T14:11:46.364Z,2.7
2022-12-15T14:16:41.269Z,2.6
2022-12-15T14:22:15.054Z,2.6
2022-12-15T14:27:50.907Z,2.6
2022-12-15T14:33:29.963Z,2.6
2022-12-15T14:38:54.685Z,2.5
2022-12-15T14:44:31.005Z,2.5
2022-12-15T14:50:03.119Z,2.4
2022-12-15T14:55:23.233Z,2.4
2022-12-15T15:01:01.173Z,2.4
2022-12-15T15:06:52.096Z,2.4
2022-12-15T15:11:58.736Z,2.4
2022-12-15T15:17:30.356Z,2.4
2022-12-15T15:23:22.568Z,2.3
2022-12-15T15:28:56.384Z,2.3
2022-12-15T15:34:28.987Z,2.3
2022-12-15T15:39:57.827Z,2.3
2022-12-15T15:45:38.361Z,2.3
2022-12-15T15:50:48.400Z,2.3
2022-12-15T15:56:16.484Z,2.3
2022-12-15T16:01:50.639Z,2.4
2022-12-15T16:07:33.163Z,2.4
2022-12-15T16:13:25.917Z,2.4
2022-12-15T16:18:37.245Z,2.4
2022-12-15T16:24:25.134Z,2.4
2022-12-15T16:29:53.533Z,2.4
2022-12-15T16:35:05.121Z,2.3
2022-12-15T16:40:42.823Z,2.3
2022-12-15T16:46:25.694Z,2.2
2022-12-15T16:51:53.928Z,2.2
2022-12-15T16:57:39.153Z,2.2
2022-12-15T17:02:57.683Z,2.2
2022-12-15T17:08:30.204Z,2.3
2022-12-15T17:14:08.245Z,2.2
2022-12-15T17:19:29.976Z,2.2
2022-12-15T17:25:12.716Z,2.2
2022-12-15T17:30:44.024Z,2.2
2022-12-15T17:36:11.229Z,2.2
2022-12-15T17:41:59.162Z,2.2
2022-12-15T17:47:12.305Z,2.1
2022-12-15T17:52:47.953Z,2.1
2022-12-15T17:58:12.372Z,2.2
2022-12-15T18:04:03.522Z,2.1
2022-12-15T18:09:26.143Z,2.1
2022-12-15T18:15:00.727Z,2.1
2022-12-15T18:20:43.373Z,2.1
2022-12-15T18:25:58.335Z,2.1
2022-12-15T18:31:39.054Z,2.2
2022-12-15T18:37:18.235Z,2.1
2022-12-15T18:42:44.524Z,2.1
2022-12-15T18:48:16.575Z,2.1
2022-12-15T18:53:39.349Z,2.1
2022-12-15T18:59:27.075Z,2
2022-12-15T19:04:54.661Z,2
2022-12-15T19:10:18.689Z,2
2022-12-15T19:16:07.858Z,2
2022-12-15T19:21:31.346Z,2
2022-12-15T19:26:58.190Z,2
2022-12-15T19:32:30.856Z,2
2022-12-15T19:38:18.743Z,2
2022-12-15T19:43:43.397Z,2
2022-12-15T19:49:05.941Z,2
2022-12-15T19:54:39.777Z,2
2022-12-15T20:00:06.430Z,1.9
2022-12-15T20:05:53.121Z,1.9
2022-12-15T20:11:24.508Z,1.9
2022-12-15T20:16:39.592Z,1.9
2022-12-15T20:22:34.473Z,1.9
2022-12-15T20:27:42.777Z,1.9
2022-12-15T20:33:31.709Z,1.8
2022-12-15T20:39:11.637Z,1.8
2022-12-15T20:44:38.539Z,1.8
2022-12-15T20:50:19.055Z,1.8
2022-12-15T20:55:37.907Z,1.8
2022-12-15T21:01:09.582Z,1.8
2022-12-15T21:06:38.111Z,1.8
2022-12-15T21:12:25.013Z,1.8
2022-12-15T21:18:03.778Z,1.8
2022-12-15T21:23:28.466Z,1.8
2022-12-15T21:28:38.029Z,1.7
2022-12-15T21:34:28.333Z,1.7
2022-12-15T21:39:58.705Z,1.7
2022-12-15T21:45:39.963Z,1.7
2022-12-15T21:51:05.516Z,1.7
2022-12-15T21:56:30.441Z,1.7
2022-12-15T22:01:57.146Z,1.7
2022-12-15T22:07:48.744Z,1.6
2022-12-15T22:13:00.468Z,1.6
2022-12-15T22:18:35.348Z,1.6
2022-12-15T22:24:13.011Z,1.6
2022-12-15T22:29:58.131Z,1.6
2022-12-15T22:35:29.148Z,1.6
2022-12-15T22:40:49.409Z,1.6
2022-12-15T22:46:17.075Z,1.6
2022-12-15T22:52:01.318Z,1.6
2022-12-15T22:57:19.429Z,1.6
2022-12-15T23:08:43.217Z,1.5
2022-12-15T23:14:09.177Z,1.5
2022-12-15T23:19:43.037Z,1.5
2022-12-15T23:25:10.816Z,1.5
2022-12-15T23:30:40.018Z,1.5
2022-12-15T23:36:25.771Z,1.5
2022-12-15T23:41:38.646Z,1.4
2022-12-15T23:47:18.092Z,1.4
2022-12-15T23:53:00.539Z,1.4
2022-12-15T23:58:10.911Z,1.4
